Time;durP1;ratioP1;P1;durP2;ratioP2;P2;SDS_P1;SDS_P2;PMS_P1;PMS_P2;Temp;Humidity;BMP_temperature;BMP_pressure;BME280_temperature;BME280_humidity;BME280_pressure;Samples;Min_cycle;Max_cycle;Signal;HPM_P1;HPM_P2
2023/02/13 00:01:48;;;;;;;53.70;24.57;;;-3.50;99.90;;;;;;4183703;28;20273;-60
2023/02/13 00:03:49;;;;;;;46.63;20.75;;;-3.50;99.90;;;;;;4195043;28;20245;-60
2023/02/13 00:05:51;;;;;;;52.33;24.47;;;-3.50;99.90;;;;;;4196835;28;20049;-62
2023/02/13 00:07:52;;;;;;;57.40;26.70;;;-3.50;99.90;;;;;;4186737;28;20747;-62
2023/02/13 00:09:53;;;;;;;58.67;26.33;;;-3.50;99.90;;;;;;4193288;28;20269;-61
2023/02/13 00:11:54;;;;;;;54.42;25.70;;;-3.60;99.90;;;;;;4186156;28;20298;-63
2023/02/13 00:13:55;;;;;;;58.10;26.33;;;-3.60;99.90;;;;;;4196668;28;20435;-59
2023/02/13 00:15:58;;;;;;;56.40;25.50;;;-3.60;99.90;;;;;;4197282;28;20321;-62
2023/02/13 00:18:01;;;;;;;54.40;24.30;;;-3.70;99.90;;;;;;4182498;28;20274;-60
2023/02/13 00:20:04;;;;;;;48.13;24.47;;;-3.70;99.90;;;;;;4181002;28;20270;-61
2023/02/13 00:22:05;;;;;;;50.80;23.67;;;-3.70;99.90;;;;;;4179897;28;20324;-61
2023/02/13 00:24:06;;;;;;;49.88;21.80;;;-3.70;99.90;;;;;;4193559;28;20330;-61
2023/02/13 00:26:10;;;;;;;47.05;21.63;;;-3.70;99.90;;;;;;4196876;28;20025;-62
2023/02/13 00:28:11;;;;;;;44.83;20.70;;;-3.70;99.90;;;;;;4197257;28;20056;-61
2023/02/13 00:30:13;;;;;;;39.30;19.05;;;-3.70;99.90;;;;;;4195916;28;20040;-61
2023/02/13 00:32:14;;;;;;;37.95;17.10;;;-3.70;99.90;;;;;;4196457;28;20556;-60
2023/02/13 00:34:15;;;;;;;33.50;15.68;;;-3.60;99.90;;;;;;4195889;28;20484;-62
2023/02/13 00:36:19;;;;;;;34.33;16.80;;;-3.60;99.90;;;;;;4195163;28;20102;-61
2023/02/13 00:38:20;;;;;;;31.60;16.75;;;-3.60;99.90;;;;;;4189891;28;20282;-60
2023/02/13 00:40:21;;;;;;;32.40;15.90;;;-3.50;99.90;;;;;;4190899;28;20029;-57
2023/02/13 00:42:25;;;;;;;35.47;16.43;;;-3.50;99.90;;;;;;4189228;28;20269;-60
2023/02/13 00:44:26;;;;;;;28.55;15.05;;;-3.50;99.90;;;;;;4191499;28;20246;-60
2023/02/13 00:46:27;;;;;;;32.40;14.02;;;-3.50;99.90;;;;;;4197143;28;20040;-61
2023/02/13 00:48:30;;;;;;;31.30;14.13;;;-3.50;99.90;;;;;;4185499;28;20078;-60
2023/02/13 00:50:32;;;;;;;29.13;13.97;;;-3.50;99.90;;;;;;4180663;28;20300;-61
2023/02/13 00:52:33;;;;;;;29.37;13.83;;;-3.40;99.90;;;;;;4180251;28;20286;-60
2023/02/13 00:54:34;;;;;;;30.07;15.10;;;-3.50;99.90;;;;;;4180283;28;20316;-61
2023/02/13 00:56:35;;;;;;;32.57;14.47;;;-3.40;99.90;;;;;;4187563;28;20339;-61
2023/02/13 00:58:37;;;;;;;30.93;13.40;;;-3.40;99.90;;;;;;4184921;28;20316;-60
2023/02/13 01:00:39;;;;;;;29.47;14.13;;;-3.50;99.90;;;;;;4179424;28;20769;-60
2023/02/13 01:02:40;;;;;;;30.88;14.40;;;-3.50;99.90;;;;;;4195337;28;20270;-61
2023/02/13 01:04:41;;;;;;;28.30;13.77;;;-3.50;99.90;;;;;;4179270;28;20419;-60
2023/02/13 01:06:42;;;;;;;29.47;13.40;;;-3.50;99.90;;;;;;4180758;28;20287;-60
2023/02/13 01:08:43;;;;;;;32.50;14.30;;;-3.50;99.90;;;;;;4179525;28;20324;-60
2023/02/13 01:10:46;;;;;;;28.97;14.07;;;-3.60;99.90;;;;;;4180263;28;20762;-61
2023/02/13 01:12:47;;;;;;;30.17;12.93;;;-3.60;99.90;;;;;;4194690;28;20282;-61
2023/02/13 01:14:48;;;;;;;30.20;14.23;;;-3.60;99.90;;;;;;4193827;28;20265;-61
2023/02/13 01:16:49;;;;;;;38.90;17.60;;;-3.60;99.90;;;;;;4196258;28;20300;-61
2023/02/13 01:18:50;;;;;;;41.37;19.63;;;-3.60;99.90;;;;;;4187123;28;20028;-62
2023/02/13 01:21:16;;;;;;;55.63;22.23;;;-3.70;99.90;;;;;;4180218;28;20316;-61
2023/02/13 01:23:17;;;;;;;48.87;22.53;;;-3.80;99.90;;;;;;4185086;28;20307;-62
2023/02/13 01:25:19;;;;;;;45.10;21.73;;;-3.90;99.90;;;;;;4186058;28;20788;-62
2023/02/13 01:27:20;;;;;;;48.85;22.30;;;-3.90;99.90;;;;;;4183709;28;20025;-62
2023/02/13 01:29:21;;;;;;;48.07;19.67;;;-4.00;99.90;;;;;;4195347;28;20037;-61
2023/02/13 01:31:22;;;;;;;54.75;21.40;;;-4.00;99.90;;;;;;4195076;28;20849;-65
2023/02/13 01:33:26;;;;;;;50.33;23.35;;;-4.00;99.90;;;;;;4190784;28;20427;-61
2023/02/13 01:35:28;;;;;;;53.83;23.05;;;-4.10;99.90;;;;;;4178987;28;20033;-61
2023/02/13 01:37:29;;;;;;;50.10;22.67;;;-4.10;99.90;;;;;;4178944;28;20053;-61
2023/02/13 01:39:31;;;;;;;50.17;22.65;;;-4.10;99.90;;;;;;4179884;28;20025;-63
2023/02/13 01:41:32;;;;;;;49.35;22.88;;;-4.10;99.90;;;;;;4185126;28;20561;-62
2023/02/13 01:43:52;;;;;;;55.35;25.58;;;-4.10;99.90;;;;;;4179747;28;20087;-61
2023/02/13 01:45:55;;;;;;;64.45;27.35;;;-4.20;99.90;;;;;;4179655;28;20086;-62
2023/02/13 01:48:04;;;;;;;64.13;29.08;;;-4.20;99.90;;;;;;4178189;28;20033;-59
2023/02/13 01:50:24;;;;;;;72.37;29.60;;;-4.30;99.90;;;;;;4196120;28;20032;-60
2023/02/13 01:52:25;;;;;;;62.17;28.45;;;-4.30;99.90;;;;;;4183493;28;20316;-60
2023/02/13 01:54:30;;;;;;;70.32;30.10;;;-4.50;99.90;;;;;;4179219;28;20436;-61
2023/02/13 01:56:31;;;;;;;63.80;26.43;;;-4.50;99.90;;;;;;4177669;28;20436;-60
2023/02/13 01:58:36;;;;;;;65.65;30.02;;;-4.50;99.90;;;;;;4186530;28;20673;-60
2023/02/13 02:00:38;;;;;;;61.60;29.67;;;-4.60;99.90;;;;;;4182672;28;20451;-61
2023/02/13 02:02:46;;;;;;;68.72;29.80;;;-4.60;99.90;;;;;;4178814;28;20036;-59
2023/02/13 02:04:48;;;;;;;66.65;29.90;;;-4.60;99.90;;;;;;4191596;28;20032;-60
2023/02/13 02:06:55;;;;;;;62.88;28.88;;;-4.60;99.90;;;;;;4193291;28;20032;-61
2023/02/13 02:09:04;;;;;;;68.97;29.52;;;-4.60;99.90;;;;;;4190597;28;20534;-60
2023/02/13 02:11:12;;;;;;;68.22;31.42;;;-4.70;99.90;;;;;;4194564;28;20033;-61
2023/02/13 02:13:19;;;;;;;74.30;32.58;;;-4.70;99.90;;;;;;4180613;28;20118;-64
2023/02/13 02:15:20;;;;;;;73.80;32.53;;;-4.80;99.90;;;;;;4188499;28;20082;-60
2023/02/13 02:17:23;;;;;;;70.78;32.47;;;-4.90;99.90;;;;;;4195536;28;20421;-61
2023/02/13 02:19:46;;;;;;;77.68;33.83;;;-4.90;99.90;;;;;;4187734;28;20199;-62
2023/02/13 02:22:29;;;;;;;74.68;30.85;;;-5.00;99.90;;;;;;4180072;28;20121;-60
2023/02/13 02:24:51;;;;;;;71.55;29.40;;;-5.10;99.90;;;;;;4178608;28;20029;-64
2023/02/13 02:27:13;;;;;;;72.47;30.95;;;-5.10;99.90;;;;;;4176215;28;20451;-60
2023/02/13 02:29:33;;;;;;;75.63;31.85;;;-5.10;99.90;;;;;;4182576;28;20102;-59
2023/02/13 02:31:43;;;;;;;76.53;34.13;;;-5.20;99.90;;;;;;4194307;28;20032;-62
2023/02/13 02:33:50;;;;;;;79.30;34.85;;;-5.30;99.90;;;;;;4193960;28;20439;-61
2023/02/13 02:35:51;;;;;;;79.55;33.80;;;-5.40;99.90;;;;;;4192550;28;20078;-64
2023/02/13 02:38:03;;;;;;;78.85;32.80;;;-5.40;99.90;;;;;;4195258;28;20040;-61
2023/02/13 02:40:28;;;;;;;75.25;31.50;;;-5.40;99.90;;;;;;4194351;28;20106;-60
2023/02/13 02:42:48;;;;;;;71.85;30.20;;;-5.40;99.90;;;;;;4184221;28;20024;-60
2023/02/13 02:45:10;;;;;;;66.85;29.30;;;-5.50;99.90;;;;;;4188962;28;20033;-61
2023/02/13 02:50:39;;;;;;;66.43;31.10;;;-5.50;99.90;;;;;;4174203;28;20071;-60
2023/02/13 02:52:59;;;;;;;66.88;28.88;;;-5.50;99.90;;;;;;4175973;28;20837;-62
2023/02/13 02:55:15;;;;;;;74.35;28.70;;;-5.50;99.90;;;;;;4178335;28;20025;-60
2023/02/13 02:57:23;;;;;;;71.63;30.40;;;-5.50;99.90;;;;;;4183303;28;20086;-60
2023/02/13 03:07:02;;;;;;;61.28;29.33;;;-5.50;99.90;;;;;;4186259;28;20149;-61
2023/02/13 03:13:50;;;;;;;63.75;27.10;;;-5.70;99.90;;;;;;4192977;28;20086;-61
2023/02/13 03:23:45;;;;;;;63.33;28.10;;;-5.80;99.90;;;;;;4192027;28;20327;-61
2023/02/13 03:25:52;;;;;;;69.53;28.40;;;-5.80;99.90;;;;;;4178206;28;20090;-60
2023/02/13 03:30:59;;;;;;;67.30;28.17;;;-5.80;99.90;;;;;;4184168;28;20079;-61
2023/02/13 03:33:29;;;;;;;63.55;27.42;;;-5.90;99.90;;;;;;4191713;28;20089;-60
2023/02/13 03:38:04;;;;;;;69.45;28.40;;;-5.80;99.90;;;;;;4193814;28;20089;-60
2023/02/13 03:40:11;;;;;;;61.92;28.45;;;-5.80;99.90;;;;;;4186101;28;20028;-61
2023/02/13 03:42:23;;;;;;;59.47;27.40;;;-5.80;99.90;;;;;;4187578;28;20057;-62
2023/02/13 03:47:17;;;;;;;64.32;26.52;;;-5.80;99.90;;;;;;4179374;28;20071;-61
2023/02/13 03:52:20;;;;;;;56.00;24.90;;;-5.80;99.90;;;;;;4178113;28;20600;-60
2023/02/13 03:59:29;;;;;;;52.75;22.98;;;-5.90;99.90;;;;;;4177073;28;20095;-60
2023/02/13 04:01:33;;;;;;;64.25;26.95;;;-5.80;99.90;;;;;;4179218;28;20041;-62
2023/02/13 04:03:55;;;;;;;58.72;26.25;;;-5.90;99.90;;;;;;4186394;28;20072;-61
2023/02/13 04:06:09;;;;;;;60.05;25.17;;;-6.00;99.90;;;;;;4177333;28;20071;-61
2023/02/13 04:08:10;;;;;;;59.15;26.00;;;-6.00;99.90;;;;;;4177312;28;20028;-64
2023/02/13 04:10:14;;;;;;;64.20;27.83;;;-6.00;99.90;;;;;;4177314;28;20029;-61
2023/02/13 04:12:24;;;;;;;61.92;26.00;;;-6.00;99.90;;;;;;4177088;28;20448;-61
2023/02/13 04:14:57;;;;;;;62.22;25.35;;;-6.10;99.90;;;;;;4190966;28;20037;-62
2023/02/13 04:17:07;;;;;;;57.63;25.83;;;-6.10;99.90;;;;;;4188753;28;20091;-61
2023/02/13 04:19:10;;;;;;;58.75;26.50;;;-6.10;99.90;;;;;;4177070;28;20464;-60
2023/02/13 04:21:11;;;;;;;59.10;25.77;;;-6.10;99.90;;;;;;4176811;28;20447;-63
2023/02/13 04:23:12;;;;;;;58.65;25.67;;;-6.10;99.90;;;;;;4186283;28;20024;-62
2023/02/13 04:25:16;;;;;;;57.72;26.60;;;-6.10;99.90;;;;;;4193612;28;20090;-63
2023/02/13 04:27:17;;;;;;;55.30;24.13;;;-6.10;99.90;;;;;;4193583;28;20471;-63
2023/02/13 04:29:22;;;;;;;58.92;25.88;;;-6.10;99.90;;;;;;4191744;28;20430;-60
2023/02/13 04:31:24;;;;;;;65.05;28.45;;;-6.10;99.90;;;;;;4182996;28;20021;-63
2023/02/13 04:33:25;;;;;;;61.88;28.65;;;-6.20;99.90;;;;;;4186677;28;20462;-61
2023/02/13 04:35:26;;;;;;;60.03;26.35;;;-6.30;99.90;;;;;;4177925;28;20033;-64
2023/02/13 04:37:27;;;;;;;64.60;27.13;;;-6.20;99.90;;;;;;4176193;28;20036;-61
2023/02/13 04:39:28;;;;;;;62.08;26.40;;;-6.30;99.90;;;;;;4177738;28;20033;-62
2023/02/13 04:41:29;;;;;;;60.05;25.23;;;-6.30;99.90;;;;;;4178877;28;20468;-62
2023/02/13 04:43:30;;;;;;;62.80;25.33;;;-6.30;99.90;;;;;;4191334;28;20071;-61
2023/02/13 04:45:32;;;;;;;60.70;25.42;;;-6.30;99.90;;;;;;4185840;28;20094;-63
2023/02/13 04:47:33;;;;;;;56.88;25.23;;;-6.30;99.90;;;;;;4184211;28;20067;-62
2023/02/13 04:49:34;;;;;;;58.20;27.10;;;-6.30;99.90;;;;;;4177115;28;20133;-62
2023/02/13 04:51:35;;;;;;;66.85;27.63;;;-6.30;99.90;;;;;;4180041;28;20094;-62
2023/02/13 04:53:36;;;;;;;62.40;27.90;;;-6.30;99.90;;;;;;4180638;28;20045;-61
2023/02/13 04:55:37;;;;;;;60.42;26.83;;;-6.30;99.90;;;;;;4180114;28;20167;-64
2023/02/13 04:57:39;;;;;;;65.88;27.30;;;-6.30;99.90;;;;;;4186928;28;20040;-61
2023/02/13 04:59:40;;;;;;;59.67;25.33;;;-6.40;99.90;;;;;;4185035;28;20118;-62
2023/02/13 05:01:41;;;;;;;63.47;26.42;;;-6.40;99.90;;;;;;4189654;28;20045;-61
2023/02/13 05:03:42;;;;;;;64.07;27.08;;;-6.40;99.90;;;;;;4185920;28;20111;-60
2023/02/13 05:05:43;;;;;;;62.60;25.98;;;-6.30;99.90;;;;;;4179998;28;20033;-61
2023/02/13 05:07:44;;;;;;;64.43;28.40;;;-6.30;99.90;;;;;;4188416;28;20086;-61
2023/02/13 05:09:46;;;;;;;56.10;26.95;;;-6.30;99.90;;;;;;4196777;28;20033;-61
2023/02/13 05:11:50;;;;;;;58.78;25.85;;;-6.30;99.90;;;;;;4195650;28;20554;-62
2023/02/13 05:13:52;;;;;;;60.05;26.08;;;-6.30;99.90;;;;;;4196333;28;20060;-62
2023/02/13 05:15:54;;;;;;;65.78;28.33;;;-6.30;99.90;;;;;;4195452;28;20381;-62
2023/02/13 05:17:55;;;;;;;65.85;29.10;;;-6.30;99.90;;;;;;4196064;28;20451;-61
2023/02/13 05:19:57;;;;;;;68.47;29.55;;;-6.30;99.90;;;;;;4185470;28;20033;-63
2023/02/13 05:24:18;;;;;;;69.35;28.52;;;-6.30;99.90;;;;;;4178824;28;20056;-64
2023/02/13 05:26:19;;;;;;;73.88;30.67;;;-6.30;99.90;;;;;;4179791;28;20037;-62
2023/02/13 05:30:45;;;;;;;69.68;27.27;;;-6.30;99.90;;;;;;4169291;28;20045;-66
2023/02/13 05:32:46;;;;;;;69.63;29.17;;;-6.30;99.90;;;;;;4178788;28;20037;-62
2023/02/13 05:34:47;;;;;;;64.40;28.67;;;-6.30;99.90;;;;;;4179429;28;20821;-60
2023/02/13 05:36:49;;;;;;;68.25;28.38;;;-6.30;99.90;;;;;;4179136;28;20033;-61
2023/02/13 05:38:50;;;;;;;65.78;28.27;;;-6.30;99.90;;;;;;4179076;28;20041;-65
2023/02/13 05:40:51;;;;;;;65.28;28.10;;;-6.40;99.90;;;;;;4190104;28;20016;-62
2023/02/13 05:42:54;;;;;;;62.03;27.40;;;-6.40;99.90;;;;;;4195009;28;20078;-62
2023/02/13 05:44:55;;;;;;;68.20;29.50;;;-6.40;99.90;;;;;;4196000;28;20036;-61
2023/02/13 05:46:56;;;;;;;66.57;30.73;;;-6.20;99.90;;;;;;4190618;28;20463;-67
2023/02/13 05:48:57;;;;;;;71.68;30.92;;;-6.10;99.90;;;;;;4194473;28;20090;-66
2023/02/13 05:50:58;;;;;;;71.47;29.80;;;-5.90;99.90;;;;;;4194959;28;20036;-64
2023/02/13 05:52:59;;;;;;;69.07;30.48;;;-5.60;99.90;;;;;;4189985;28;20071;-62
2023/02/13 05:55:00;;;;;;;67.95;30.33;;;-5.40;99.90;;;;;;4176941;28;20045;-63
2023/02/13 05:57:02;;;;;;;58.10;27.30;;;-5.20;99.90;;;;;;4179887;28;20032;-63
2023/02/13 05:59:03;;;;;;;62.17;27.95;;;-4.90;99.90;;;;;;4177668;28;20440;-64
2023/02/13 06:01:05;;;;;;;68.40;29.13;;;-4.60;99.90;;;;;;4180394;28;20028;-62
2023/02/13 06:03:06;;;;;;;68.25;28.60;;;-4.30;99.90;;;;;;4189139;28;20059;-67
2023/02/13 06:05:07;;;;;;;66.72;30.27;;;-4.00;99.90;;;;;;4193583;28;20028;-66
2023/02/13 06:07:08;;;;;;;66.85;28.25;;;-3.70;99.90;;;;;;4183686;28;20029;-63
2023/02/13 06:09:09;;;;;;;62.63;28.30;;;-3.40;99.90;;;;;;4178290;28;20087;-65
2023/02/13 06:11:11;;;;;;;67.17;30.07;;;-3.00;99.90;;;;;;4179659;28;20400;-66
2023/02/13 06:13:12;;;;;;;65.97;28.50;;;-2.60;99.90;;;;;;4177622;28;20282;-62
2023/02/13 06:15:13;;;;;;;69.73;30.13;;;-2.30;99.90;;;;;;4192834;28;20948;-59
2023/02/13 06:17:14;;;;;;;73.73;32.10;;;-1.80;99.90;;;;;;4194195;28;20791;-62
2023/02/13 06:19:16;;;;;;;73.13;31.87;;;-1.40;99.90;;;;;;4194823;28;20265;-63
2023/02/13 06:21:17;;;;;;;68.23;29.80;;;-1.10;99.90;;;;;;4194246;28;20628;-63
2023/02/13 06:23:18;;;;;;;68.23;31.83;;;-1.10;99.90;;;;;;4195302;28;20675;-62
2023/02/13 06:25:20;;;;;;;59.07;29.37;;;-1.20;99.90;;;;;;4194077;28;20265;-63
2023/02/13 06:27:21;;;;;;;57.60;28.60;;;-1.10;99.90;;;;;;4194902;28;20326;-62
2023/02/13 06:29:22;;;;;;;58.23;29.73;;;-1.00;99.90;;;;;;4194119;28;20299;-62
2023/02/13 06:31:23;;;;;;;56.07;28.47;;;-1.10;99.90;;;;;;4195161;28;20713;-62
2023/02/13 06:33:25;;;;;;;52.93;24.40;;;-1.10;99.90;;;;;;4192171;28;20346;-62
2023/02/13 06:35:26;;;;;;;50.00;24.33;;;-1.10;99.90;;;;;;4194918;28;20663;-62
2023/02/13 06:37:27;;;;;;;47.43;24.23;;;-1.00;99.90;;;;;;4194305;28;20318;-62
2023/02/13 06:39:29;;;;;;;49.57;24.07;;;-1.00;99.90;;;;;;4192844;28;20315;-62
2023/02/13 06:41:30;;;;;;;48.40;24.53;;;-0.70;99.90;;;;;;4194735;28;20258;-63
2023/02/13 06:43:31;;;;;;;45.20;23.80;;;-0.30;99.90;;;;;;4193891;28;20358;-61
2023/02/13 06:45:32;;;;;;;48.97;23.47;;;0.00;99.90;;;;;;4192780;28;20266;-64
2023/02/13 06:47:33;;;;;;;44.33;23.27;;;0.30;99.90;;;;;;4193878;28;20307;-63
2023/02/13 06:49:35;;;;;;;41.53;21.20;;;0.60;99.90;;;;;;4194398;28;20795;-61
2023/02/13 06:51:36;;;;;;;40.70;20.87;;;0.70;99.90;;;;;;4193759;28;20648;-63
2023/02/13 06:53:38;;;;;;;40.17;21.47;;;1.00;99.90;;;;;;4194304;28;20646;-62
2023/02/13 06:55:39;;;;;;;50.20;23.90;;;1.30;99.90;;;;;;4193794;28;20266;-64
2023/02/13 06:57:44;;;;;;;50.77;26.10;;;1.60;99.90;;;;;;4194614;28;20319;-63
2023/02/13 06:59:45;;;;;;;45.80;24.10;;;1.60;99.90;;;;;;4193613;28;20288;-64
2023/02/13 07:01:46;;;;;;;49.57;26.00;;;1.80;99.90;;;;;;4194832;28;20319;-64
2023/02/13 07:03:47;;;;;;;52.03;26.23;;;1.90;99.90;;;;;;4193460;28;20288;-64
2023/02/13 07:05:50;;;;;;;49.00;26.13;;;2.10;99.90;;;;;;4194613;28;20265;-63
2023/02/13 07:07:51;;;;;;;50.17;26.97;;;2.30;99.90;;;;;;4193945;28;20249;-65
2023/02/13 07:09:53;;;;;;;46.13;25.23;;;2.60;99.90;;;;;;4194090;28;20275;-62
2023/02/13 07:11:54;;;;;;;51.77;26.07;;;2.90;99.90;;;;;;4194263;28;20258;-64
2023/02/13 07:13:55;;;;;;;51.47;27.40;;;2.80;99.90;;;;;;4193602;28;20355;-66
2023/02/13 07:15:59;;;;;;;58.27;25.93;;;3.00;99.90;;;;;;4194171;28;20303;-61
2023/02/13 07:18:01;;;;;;;41.87;22.07;;;3.30;99.90;;;;;;4193632;28;20261;-61
2023/02/13 07:20:04;;;;;;;35.40;20.40;;;3.40;99.90;;;;;;4194637;28;20261;-61
2023/02/13 07:22:05;;;;;;;31.67;17.33;;;3.60;99.90;;;;;;4193449;28;20323;-61
2023/02/13 07:24:06;;;;;;;29.10;14.57;;;3.70;99.90;;;;;;4194646;28;20342;-63
2023/02/13 07:26:09;;;;;;;23.47;12.07;;;3.80;99.90;;;;;;4193861;28;20316;-62
2023/02/13 07:28:11;;;;;;;26.77;13.73;;;3.60;99.90;;;;;;4194518;28;20270;-62
2023/02/13 07:30:13;;;;;;;70.03;33.87;;;3.60;99.90;;;;;;4193126;28;20261;-62
2023/02/13 07:32:14;;;;;;;40.43;20.10;;;3.50;99.40;;;;;;4194395;28;20269;-61
2023/02/13 07:34:15;;;;;;;33.23;18.87;;;3.60;99.90;;;;;;4193226;28;20331;-61
2023/02/13 07:36:16;;;;;;;42.27;22.27;;;3.70;99.40;;;;;;4194588;28;20806;-62
2023/02/13 07:38:18;;;;;;;30.27;20.00;;;3.60;98.80;;;;;;4193443;28;20375;-64
2023/02/13 07:40:19;;;;;;;24.47;14.03;;;3.50;97.80;;;;;;4193530;28;20783;-62
2023/02/13 07:42:20;;;;;;;20.07;10.90;;;3.80;99.10;;;;;;4193652;28;20307;-63
2023/02/13 07:44:21;;;;;;;20.97;10.57;;;4.10;97.70;;;;;;4193591;28;20273;-64
2023/02/13 07:46:22;;;;;;;24.57;14.50;;;4.10;97.30;;;;;;4193494;28;20258;-63
2023/02/13 07:48:26;;;;;;;25.03;13.03;;;4.40;97.40;;;;;;4193309;28;21017;-66
2023/02/13 07:50:27;;;;;;;17.40;10.47;;;4.60;97.30;;;;;;4192472;28;20265;-65
2023/02/13 07:52:28;;;;;;;17.27;10.03;;;4.90;97.00;;;;;;4192892;28;20274;-61
2023/02/13 07:54:30;;;;;;;17.37;10.47;;;5.10;96.40;;;;;;4194195;28;20297;-65
2023/02/13 07:56:31;;;;;;;25.57;12.60;;;5.40;95.60;;;;;;4193169;28;20319;-64
2023/02/13 07:58:33;;;;;;;19.57;10.53;;;5.50;95.70;;;;;;4193810;28;20277;-61
2023/02/13 08:00:34;;;;;;;24.23;11.07;;;5.70;95.40;;;;;;4192799;28;20286;-65
2023/02/13 08:02:35;;;;;;;28.00;10.47;;;6.00;94.60;;;;;;4194199;28;20277;-62
2023/02/13 08:04:36;;;;;;;19.63;9.83;;;6.10;93.60;;;;;;4192598;28;20327;-60
2023/02/13 08:06:40;;;;;;;16.57;8.47;;;6.20;93.60;;;;;;4194358;28;20335;-66
2023/02/13 08:08:41;;;;;;;22.20;9.57;;;6.30;92.80;;;;;;4193169;28;20314;-63
2023/02/13 08:13:02;;;;;;;22.43;11.33;;;6.40;92.70;;;;;;4193030;28;20603;-61
2023/02/13 08:15:04;;;;;;;26.23;13.13;;;6.60;92.40;;;;;;4193332;28;20456;-61
2023/02/13 08:17:05;;;;;;;23.43;10.40;;;6.80;92.30;;;;;;4193274;28;20017;-63
2023/02/13 08:19:06;;;;;;;16.03;9.53;;;7.10;92.30;;;;;;4192793;28;20109;-63
2023/02/13 08:21:07;;;;;;;17.00;9.50;;;6.80;91.40;;;;;;4193591;28;21389;-62
2023/02/13 08:23:10;;;;;;;19.20;10.60;;;6.90;91.70;;;;;;4193018;28;20078;-59
2023/02/13 08:25:12;;;;;;;18.67;9.80;;;6.90;91.90;;;;;;4193860;28;20078;-63
2023/02/13 08:27:13;;;;;;;19.90;10.00;;;6.60;90.90;;;;;;4196226;28;20045;-66
2023/02/13 08:29:15;;;;;;;21.83;10.57;;;6.80;91.30;;;;;;4197149;28;20075;-61
2023/02/13 08:31:16;;;;;;;20.27;10.43;;;6.90;91.00;;;;;;4195936;28;20047;-62
2023/02/13 08:33:17;;;;;;;15.27;8.23;;;7.30;90.80;;;;;;4196641;28;21105;-61
2023/02/13 08:35:18;;;;;;;11.80;7.80;;;7.10;90.40;;;;;;4195753;28;20101;-61
2023/02/13 08:37:20;;;;;;;16.57;9.50;;;7.10;90.10;;;;;;4196864;28;20109;-64
2023/02/13 08:39:21;;;;;;;19.93;9.33;;;6.70;90.20;;;;;;4195905;28;20021;-62
2023/02/13 08:41:22;;;;;;;20.63;9.03;;;6.00;90.20;;;;;;4197043;28;20020;-63
2023/02/13 08:43:24;;;;;;;23.27;10.50;;;6.10;90.90;;;;;;4195472;28;20040;-66
2023/02/13 08:45:25;;;;;;;16.03;8.83;;;6.30;91.00;;;;;;4196618;28;20044;-61
2023/02/13 08:47:26;;;;;;;21.47;9.63;;;6.60;90.70;;;;;;4196084;28;20094;-62
2023/02/13 08:49:27;;;;;;;21.70;9.67;;;6.50;90.30;;;;;;4196390;28;20098;-62
2023/02/13 08:51:28;;;;;;;31.37;12.40;;;6.60;90.10;;;;;;4195974;28;20127;-62
2023/02/13 08:53:30;;;;;;;21.20;11.40;;;6.40;89.80;;;;;;4194582;28;20048;-62
2023/02/13 08:55:31;;;;;;;19.47;11.57;;;5.90;90.90;;;;;;4195911;28;20032;-63
2023/02/13 08:57:33;;;;;;;31.20;14.93;;;5.40;90.70;;;;;;4196029;28;20076;-62
2023/02/13 08:59:34;;;;;;;31.20;12.47;;;5.30;91.00;;;;;;4196584;28;20063;-62
2023/02/13 09:01:35;;;;;;;28.60;13.37;;;5.20;91.50;;;;;;4195320;28;20036;-62
2023/02/13 09:03:36;;;;;;;31.50;14.10;;;4.70;91.70;;;;;;4196742;28;20094;-62
2023/02/13 09:05:37;;;;;;;25.80;12.97;;;4.40;91.80;;;;;;4195573;28;20050;-62
2023/02/13 09:07:38;;;;;;;27.13;13.80;;;4.60;92.20;;;;;;4196753;28;20029;-61
2023/02/13 09:09:40;;;;;;;24.47;12.97;;;4.60;92.40;;;;;;4195216;28;20295;-63
2023/02/13 09:11:41;;;;;;;26.90;13.20;;;4.80;92.20;;;;;;4196331;28;20253;-62
2023/02/13 09:13:42;;;;;;;29.60;13.23;;;4.90;91.90;;;;;;4195345;28;20757;-63
2023/02/13 09:15:43;;;;;;;33.40;14.70;;;4.70;91.20;;;;;;4196331;28;20323;-63
2023/02/13 09:17:44;;;;;;;32.43;15.33;;;4.70;91.80;;;;;;4195019;28;20633;-62
2023/02/13 09:19:46;;;;;;;32.30;16.33;;;4.70;92.30;;;;;;4195919;28;20315;-62
2023/02/13 09:21:47;;;;;;;33.17;15.37;;;4.30;92.90;;;;;;4195342;28;20322;-60
2023/02/13 09:23:49;;;;;;;29.93;15.97;;;3.80;93.80;;;;;;4195696;28;20257;-61
2023/02/13 09:25:50;;;;;;;32.43;17.40;;;3.60;94.40;;;;;;4195769;28;20265;-60
2023/02/13 09:27:52;;;;;;;33.90;18.37;;;3.50;94.60;;;;;;4195515;28;20398;-61
2023/02/13 09:29:53;;;;;;;36.00;18.93;;;3.50;94.90;;;;;;4196059;28;20299;-61
2023/02/13 09:31:54;;;;;;;40.00;17.17;;;3.40;95.00;;;;;;4194635;28;20292;-63
2023/02/13 09:33:55;;;;;;;31.87;16.97;;;3.30;95.20;;;;;;4195133;28;20688;-62
2023/02/13 09:35:56;;;;;;;36.23;18.37;;;3.20;95.50;;;;;;4194738;28;20261;-62
2023/02/13 09:37:59;;;;;;;38.87;20.10;;;3.10;96.00;;;;;;4195799;28;20331;-61
2023/02/13 09:40:00;;;;;;;44.07;20.50;;;2.90;96.80;;;;;;4194778;28;20603;-62
2023/02/13 09:42:10;;;;;;;40.03;20.03;;;2.60;97.30;;;;;;4195769;28;20335;-61
2023/02/13 09:44:37;;;;;;;46.73;21.63;;;2.50;98.00;;;;;;4194253;28;20265;-62
2023/02/13 09:46:39;;;;;;;38.80;19.10;;;2.30;98.70;;;;;;4195791;28;20289;-58
2023/02/13 09:48:45;;;;;;;40.30;19.73;;;2.20;99.10;;;;;;4194930;28;20339;-61
2023/02/13 09:50:47;;;;;;;35.47;19.27;;;2.30;99.10;;;;;;4196285;28;20265;-62
2023/02/13 09:52:51;;;;;;;45.20;20.80;;;2.20;99.60;;;;;;4194909;28;20672;-62
2023/02/13 09:54:52;;;;;;;46.77;21.70;;;2.20;99.90;;;;;;4195797;28;20285;-61
2023/02/13 09:57:06;;;;;;;43.87;21.17;;;2.10;99.90;;;;;;4194665;28;20692;-61
2023/02/13 09:59:19;;;;;;;46.13;20.63;;;2.10;99.90;;;;;;4195683;28;20266;-62
2023/02/13 10:01:29;;;;;;;43.57;20.40;;;2.00;99.90;;;;;;4194293;28;20274;-61
2023/02/13 10:03:43;;;;;;;45.05;21.80;;;2.00;99.90;;;;;;4195846;28;20326;-61
2023/02/13 10:06:14;;;;;;;41.63;20.07;;;1.90;99.90;;;;;;4194341;28;20032;-61
2023/02/13 10:08:42;;;;;;;50.40;20.98;;;1.90;99.90;;;;;;4195479;28;20334;-62
2023/02/13 10:11:07;;;;;;;40.13;20.53;;;1.90;99.90;;;;;;4194054;28;20082;-62
2023/02/13 10:13:22;;;;;;;49.80;20.40;;;1.90;99.90;;;;;;4195210;28;20314;-60
2023/02/13 10:15:46;;;;;;;40.70;19.37;;;2.00;99.90;;;;;;4193393;28;20285;-60
2023/02/13 10:17:56;;;;;;;38.40;19.33;;;2.00;99.90;;;;;;4184113;28;20285;-61
2023/02/13 10:20:03;;;;;;;41.37;20.07;;;2.10;99.90;;;;;;4194387;28;20335;-62
2023/02/13 10:22:18;;;;;;;43.43;20.33;;;2.10;99.90;;;;;;4194926;28;20258;-63
2023/02/13 10:24:44;;;;;;;41.73;20.30;;;2.10;99.90;;;;;;4194205;28;20292;-63
2023/02/13 10:26:46;;;;;;;41.73;19.10;;;2.00;99.90;;;;;;4195024;28;20307;-62
2023/02/13 10:31:23;;;;;;;42.97;19.93;;;2.10;99.90;;;;;;4194121;28;20327;-62
2023/02/13 10:33:49;;;;;;;37.73;19.53;;;2.20;99.90;;;;;;4194390;28;20359;-62
2023/02/13 10:36:05;;;;;;;39.77;20.40;;;2.10;99.90;;;;;;4184127;28;20285;-61
2023/02/13 10:38:20;;;;;;;42.53;21.10;;;2.10;99.90;;;;;;4195212;28;20269;-61
2023/02/13 10:40:30;;;;;;;45.70;20.87;;;2.10;99.90;;;;;;4193422;28;20269;-61
2023/02/13 10:42:42;;;;;;;44.60;20.20;;;2.30;99.90;;;;;;4194979;28;20343;-62
2023/02/13 10:45:18;;;;;;;40.37;20.77;;;2.30;99.90;;;;;;4193733;28;20330;-61
2023/02/13 10:47:43;;;;;;;53.17;23.33;;;2.30;99.90;;;;;;4194141;28;20319;-62
2023/02/13 10:49:44;;;;;;;45.00;21.33;;;2.40;99.90;;;;;;4193308;28;20273;-60
2023/02/13 10:51:55;;;;;;;47.97;21.90;;;2.50;99.90;;;;;;4194781;28;20261;-62
2023/02/13 10:54:20;;;;;;;48.77;22.57;;;2.50;99.90;;;;;;4192961;28;20338;-61
2023/02/13 10:56:25;;;;;;;52.03;23.80;;;2.50;99.90;;;;;;4195096;28;20277;-62
2023/02/13 10:58:55;;;;;;;51.40;23.00;;;2.60;99.90;;;;;;4193706;28;20277;-62
2023/02/13 11:01:15;;;;;;;42.20;20.35;;;2.70;99.90;;;;;;4194324;28;20757;-63
2023/02/13 11:03:19;;;;;;;42.80;21.73;;;2.60;99.90;;;;;;4193631;28;20041;-64
2023/02/13 11:05:29;;;;;;;45.00;20.43;;;2.60;99.90;;;;;;4194321;28;20319;-64
2023/02/13 11:07:31;;;;;;;46.70;22.40;;;2.60;99.90;;;;;;4193641;28;20319;-61
2023/02/13 11:09:38;;;;;;;43.40;19.93;;;2.60;99.90;;;;;;4194414;28;20028;-61
2023/02/13 11:11:42;;;;;;;40.97;19.70;;;2.70;99.90;;;;;;4193325;28;20262;-60
2023/02/13 11:13:43;;;;;;;44.63;20.77;;;2.60;99.90;;;;;;4194615;28;20778;-63
2023/02/13 11:16:07;;;;;;;41.13;20.77;;;2.70;99.90;;;;;;4193309;28;20662;-61
2023/02/13 11:18:18;;;;;;;35.80;19.37;;;2.80;99.90;;;;;;4194528;28;20311;-62
2023/02/13 11:20:36;;;;;;;38.40;19.00;;;2.90;99.90;;;;;;4193359;28;20265;-63
2023/02/13 11:22:41;;;;;;;40.30;18.80;;;2.90;99.90;;;;;;4194106;28;20522;-65
2023/02/13 11:24:52;;;;;;;37.03;18.47;;;2.90;99.90;;;;;;4193227;28;20303;-62
2023/02/13 11:27:07;;;;;;;41.57;17.83;;;2.90;99.90;;;;;;4194686;28;20276;-66